Time;durP1;ratioP1;P1;durP2;ratioP2;P2;SDS_P1;SDS_P2;PMS_P1;PMS_P2;Temp;Humidity;BMP_temperature;BMP_pressure;BME280_temperature;BME280_humidity;BME280_pressure;Samples;Min_cycle;Max_cycle;Signal;HPM_P1;HPM_P2
2022/03/02 00:00:12;;;;;;;22.38;12.45;;;103.10;2227.20;;;;;;5030720;28;20048;-58
2022/03/02 00:02:38;;;;;;;21.13;12.88;;;103.00;2227.20;;;;;;5030549;28;20040;-58
2022/03/02 00:05:05;;;;;;;16.67;12.32;;;103.10;2227.20;;;;;;5030511;28;20026;-56
2022/03/02 00:07:30;;;;;;;18.67;12.60;;;103.10;2227.20;;;;;;5030694;28;20408;-58
2022/03/02 00:09:56;;;;;;;22.42;13.57;;;103.00;2227.20;;;;;;5030445;28;20022;-59
2022/03/02 00:12:23;;;;;;;19.10;12.50;;;103.00;2227.20;;;;;;5030463;28;20499;-58
2022/03/02 00:14:48;;;;;;;20.08;12.48;;;103.00;2227.20;;;;;;5030472;28;20018;-58
2022/03/02 00:17:14;;;;;;;16.67;12.27;;;103.00;2227.20;;;;;;5028819;28;20040;-58
2022/03/02 00:19:41;;;;;;;19.60;12.43;;;103.00;2227.20;;;;;;5030435;28;20022;-59
2022/03/02 00:22:06;;;;;;;23.90;13.00;;;103.10;2227.20;;;;;;5030196;28;20025;-58
2022/03/02 00:24:32;;;;;;;21.45;13.30;;;103.00;2227.20;;;;;;5030429;28;20384;-58
2022/03/02 00:26:58;;;;;;;19.48;12.40;;;103.00;2227.20;;;;;;5030367;28;20431;-58
2022/03/02 00:29:25;;;;;;;27.17;14.27;;;103.00;2227.20;;;;;;5030569;28;20025;-58
2022/03/02 00:31:50;;;;;;;21.33;12.15;;;102.90;2227.20;;;;;;5030570;28;20048;-58
2022/03/02 00:34:17;;;;;;;19.85;12.73;;;103.00;2227.20;;;;;;5029945;28;20472;-57
2022/03/02 00:36:42;;;;;;;20.65;11.75;;;103.00;2227.20;;;;;;5029998;28;20718;-58
2022/03/02 00:39:09;;;;;;;21.50;12.32;;;102.90;2227.20;;;;;;5030233;28;20039;-58
2022/03/02 00:41:35;;;;;;;22.90;14.27;;;102.90;2227.20;;;;;;5029978;28;20030;-58
2022/03/02 00:44:02;;;;;;;21.83;12.85;;;102.90;2227.20;;;;;;5030088;28;20391;-58
2022/03/02 00:46:29;;;;;;;19.42;13.00;;;102.90;2227.20;;;;;;5029953;28;20031;-58
2022/03/02 00:48:59;;;;;;;20.90;11.93;;;102.90;2227.20;;;;;;5030112;28;20160;-59
2022/03/02 00:51:26;;;;;;;18.67;12.13;;;102.90;2227.20;;;;;;5030052;28;20471;-57
2022/03/02 00:53:54;;;;;;;21.27;13.63;;;102.80;2227.20;;;;;;5030295;28;20037;-57
2022/03/02 00:56:22;;;;;;;21.88;12.60;;;102.90;2227.20;;;;;;5030261;28;20025;-58
2022/03/02 00:58:48;;;;;;;19.77;11.77;;;102.80;2227.20;;;;;;5029828;28;20079;-58
2022/03/02 01:01:15;;;;;;;17.25;12.48;;;102.80;2227.20;;;;;;5029720;28;20036;-58
2022/03/02 01:03:41;;;;;;;21.45;12.75;;;102.90;2227.20;;;;;;5029918;28;20029;-57
2022/03/02 01:06:07;;;;;;;20.52;13.40;;;102.90;2227.20;;;;;;5029863;28;20088;-58
2022/03/02 01:08:33;;;;;;;22.77;11.90;;;102.90;2227.20;;;;;;5030268;28;20942;-57
2022/03/02 01:10:59;;;;;;;14.40;11.15;;;102.90;2227.20;;;;;;5030023;28;20112;-57
2022/03/02 01:13:25;;;;;;;21.27;11.50;;;102.90;2227.20;;;;;;5029593;28;20116;-58
2022/03/02 01:15:51;;;;;;;18.65;10.73;;;103.00;2227.20;;;;;;5029938;28;20036;-57
2022/03/02 01:18:17;;;;;;;21.42;12.32;;;103.00;2227.20;;;;;;5029722;28;20018;-58
2022/03/02 01:20:42;;;;;;;15.35;11.45;;;102.90;2227.20;;;;;;5029848;28;20030;-60
2022/03/02 01:23:08;;;;;;;17.80;12.05;;;102.90;2227.20;;;;;;5029806;28;20375;-58
2022/03/02 01:25:34;;;;;;;20.77;13.38;;;102.90;2227.20;;;;;;5032067;28;20416;-60
2022/03/02 01:28:00;;;;;;;26.55;18.73;;;102.80;2227.20;;;;;;5033768;28;20547;-58
2022/03/02 01:30:26;;;;;;;20.23;12.27;;;102.70;2227.20;;;;;;5033183;28;20025;-58
2022/03/02 01:32:52;;;;;;;21.65;13.02;;;102.80;2227.20;;;;;;5033515;28;20036;-58
2022/03/02 01:35:18;;;;;;;21.10;13.50;;;102.90;2227.20;;;;;;5033067;28;20026;-60
2022/03/02 01:37:43;;;;;;;18.83;11.70;;;102.80;2227.20;;;;;;5033041;28;20060;-62
2022/03/02 01:40:10;;;;;;;18.70;12.77;;;102.90;2227.20;;;;;;5033300;28;20013;-61
2022/03/02 01:42:37;;;;;;;18.65;14.07;;;102.80;2227.20;;;;;;5032914;28;20455;-59
2022/03/02 01:45:05;;;;;;;20.48;12.27;;;102.80;2227.20;;;;;;5032999;28;20026;-58
2022/03/02 01:47:31;;;;;;;19.08;12.88;;;102.80;2227.20;;;;;;5033154;28;20206;-59
2022/03/02 01:49:57;;;;;;;15.50;10.63;;;102.90;2227.20;;;;;;5033137;28;20025;-58
2022/03/02 01:52:23;;;;;;;17.83;11.98;;;103.00;2227.20;;;;;;5033164;28;20033;-59
2022/03/02 01:54:48;;;;;;;19.77;12.70;;;102.80;2227.20;;;;;;5033173;28;20032;-59
2022/03/02 01:57:14;;;;;;;21.92;12.52;;;102.90;2227.20;;;;;;5032926;28;20380;-61
2022/03/02 01:59:40;;;;;;;20.77;11.45;;;102.70;2227.20;;;;;;5032935;28;20029;-58
2022/03/02 02:02:06;;;;;;;18.23;12.75;;;102.80;2227.20;;;;;;5032826;28;20030;-62
2022/03/02 02:04:33;;;;;;;19.08;11.15;;;102.80;2227.20;;;;;;5032674;28;20034;-59
2022/03/02 02:06:58;;;;;;;19.13;12.48;;;102.70;2227.20;;;;;;5032691;28;20537;-58
2022/03/02 02:09:24;;;;;;;19.00;11.25;;;102.80;2227.20;;;;;;5032760;28;20030;-58
2022/03/02 02:11:50;;;;;;;19.63;11.25;;;102.80;2227.20;;;;;;5032889;28;20025;-57
2022/03/02 02:14:16;;;;;;;23.05;12.15;;;102.80;2227.20;;;;;;5032401;28;20025;-60
2022/03/02 02:16:42;;;;;;;20.27;11.85;;;102.90;2227.20;;;;;;5032962;28;20059;-57
2022/03/02 02:19:08;;;;;;;16.33;10.90;;;102.80;2227.20;;;;;;5032837;28;20067;-57
2022/03/02 02:21:34;;;;;;;17.08;10.75;;;102.80;2227.20;;;;;;5032550;28;20029;-57
2022/03/02 02:23:59;;;;;;;19.60;12.35;;;102.90;2227.20;;;;;;5032598;28;20042;-61
2022/03/02 02:26:25;;;;;;;18.15;11.98;;;102.80;2227.20;;;;;;5032398;28;20036;-58
2022/03/02 02:28:52;;;;;;;17.77;10.40;;;102.90;2227.20;;;;;;5032669;28;20029;-57
2022/03/02 02:31:18;;;;;;;19.63;11.70;;;102.80;2227.20;;;;;;5032358;28;20025;-58
2022/03/02 02:33:44;;;;;;;19.17;11.13;;;102.90;2227.20;;;;;;5032193;28;20026;-58
2022/03/02 02:36:11;;;;;;;16.02;10.88;;;102.90;2227.20;;;;;;5031785;28;20048;-59
2022/03/02 02:38:36;;;;;;;16.60;11.90;;;102.80;2227.20;;;;;;5032305;28;20365;-57
2022/03/02 02:41:02;;;;;;;19.70;11.55;;;102.90;2227.20;;;;;;5032169;28;20071;-58
2022/03/02 02:43:28;;;;;;;21.25;11.65;;;102.80;2227.20;;;;;;5032236;28;20033;-58
2022/03/02 02:45:54;;;;;;;20.83;12.10;;;102.90;2227.20;;;;;;5031897;28;20049;-60
2022/03/02 02:48:20;;;;;;;58.70;43.65;;;102.80;2227.20;;;;;;5032344;28;20021;-57
2022/03/02 02:50:46;;;;;;;19.88;11.50;;;102.70;2227.20;;;;;;5031854;28;20475;-57
2022/03/02 02:53:13;;;;;;;19.00;10.43;;;102.70;2227.20;;;;;;5032198;28;20084;-58
2022/03/02 02:55:42;;;;;;;17.10;11.68;;;102.80;2227.20;;;;;;5032074;28;20083;-58
2022/03/02 02:58:08;;;;;;;16.48;11.35;;;102.80;2227.20;;;;;;5032031;28;20029;-57
2022/03/02 03:00:37;;;;;;;15.95;10.70;;;102.80;2227.20;;;;;;5031486;28;20021;-60
2022/03/02 03:03:04;;;;;;;15.73;10.52;;;102.80;2227.20;;;;;;5031662;28;20076;-58
2022/03/02 03:05:31;;;;;;;18.10;11.48;;;102.70;2227.20;;;;;;5031638;28;20552;-58
2022/03/02 03:08:01;;;;;;;16.45;10.02;;;102.70;2227.20;;;;;;5031621;28;20104;-57
2022/03/02 03:10:27;;;;;;;12.82;10.05;;;102.70;2227.20;;;;;;5031456;28;20469;-59
2022/03/02 03:12:54;;;;;;;22.05;10.05;;;102.80;2227.20;;;;;;5031575;28;20507;-59
2022/03/02 03:15:21;;;;;;;15.88;9.93;;;102.80;2227.20;;;;;;5031590;28;20032;-57
2022/03/02 03:17:48;;;;;;;18.10;10.85;;;102.80;2227.20;;;;;;5031466;28;20026;-57
2022/03/02 03:20:16;;;;;;;20.58;10.38;;;102.80;2227.20;;;;;;5031335;28;20025;-58
2022/03/02 03:22:41;;;;;;;18.70;10.75;;;102.80;2227.20;;;;;;5031485;28;20041;-57
2022/03/02 03:25:08;;;;;;;17.33;10.73;;;103.10;2227.20;;;;;;5031300;28;20423;-57
2022/03/02 03:27:35;;;;;;;18.40;11.00;;;102.90;2227.20;;;;;;5031158;28;20030;-58
2022/03/02 03:30:01;;;;;;;21.13;11.80;;;102.90;2227.20;;;;;;5031287;28;20523;-58
2022/03/02 03:32:27;;;;;;;17.20;10.55;;;102.80;2227.20;;;;;;5031350;28;20101;-58
2022/03/02 03:34:53;;;;;;;19.88;11.95;;;102.80;2227.20;;;;;;5031401;28;20040;-58
2022/03/02 03:37:19;;;;;;;18.02;11.38;;;102.90;2227.20;;;;;;5030992;28;20045;-58
2022/03/02 03:39:45;;;;;;;16.52;10.38;;;102.80;2227.20;;;;;;5029726;28;20041;-57
2022/03/02 03:42:11;;;;;;;22.45;13.77;;;102.80;2227.20;;;;;;5031083;28;20044;-57
2022/03/02 03:44:37;;;;;;;16.10;10.05;;;102.80;2227.20;;;;;;5030730;28;20113;-58
2022/03/02 03:47:04;;;;;;;17.90;10.95;;;102.70;2227.20;;;;;;5030041;28;20463;-58
2022/03/02 03:49:30;;;;;;;21.00;12.15;;;102.80;2227.20;;;;;;5030873;28;20125;-58
2022/03/02 03:51:55;;;;;;;21.42;13.73;;;102.80;2227.20;;;;;;5030669;28;20100;-57
2022/03/02 03:54:21;;;;;;;20.42;12.18;;;102.80;2227.20;;;;;;5030939;28;20033;-60
2022/03/02 03:56:47;;;;;;;15.93;10.45;;;102.80;2227.20;;;;;;5030598;28;20095;-59
2022/03/02 03:59:13;;;;;;;18.20;11.55;;;102.70;2227.20;;;;;;5030636;28;20120;-57
2022/03/02 04:01:39;;;;;;;17.25;10.80;;;102.80;2227.20;;;;;;5030695;28;20460;-58
2022/03/02 04:04:05;;;;;;;20.00;12.63;;;102.70;2227.20;;;;;;5030308;28;20476;-58
2022/03/02 04:06:31;;;;;;;20.02;11.38;;;102.60;2227.20;;;;;;5030636;28;20036;-58
2022/03/02 04:08:57;;;;;;;21.45;11.13;;;102.60;2227.20;;;;;;5030401;28;20109;-58
2022/03/02 04:11:23;;;;;;;19.48;11.55;;;102.70;2227.20;;;;;;5030456;28;20059;-58
2022/03/02 04:13:49;;;;;;;21.05;13.02;;;102.70;2227.20;;;;;;5030762;28;20087;-58
2022/03/02 04:16:15;;;;;;;21.17;11.63;;;102.70;2227.20;;;;;;5030082;28;20120;-58
2022/03/02 04:18:40;;;;;;;20.58;11.85;;;102.70;2227.20;;;;;;5030407;28;20122;-59
2022/03/02 04:21:06;;;;;;;19.65;12.25;;;102.60;2227.20;;;;;;5030301;28;20029;-58
2022/03/02 04:23:32;;;;;;;21.10;13.05;;;102.60;2227.20;;;;;;5030470;28;20044;-58
2022/03/02 04:25:58;;;;;;;15.77;10.82;;;102.70;2227.20;;;;;;5030451;28;20467;-58
2022/03/02 04:28:23;;;;;;;22.45;12.07;;;102.70;2227.20;;;;;;5030109;28;20464;-58
2022/03/02 04:30:49;;;;;;;20.20;11.73;;;102.60;2227.20;;;;;;5030445;28;20014;-59
2022/03/02 04:33:15;;;;;;;19.92;12.38;;;102.70;2227.20;;;;;;5030028;28;20104;-58
2022/03/02 04:35:42;;;;;;;21.63;11.98;;;102.60;2227.20;;;;;;5029913;28;20026;-57
2022/03/02 04:38:10;;;;;;;22.80;13.35;;;102.70;2227.20;;;;;;5029979;28;20472;-57
2022/03/02 04:40:36;;;;;;;17.23;11.55;;;102.70;2227.20;;;;;;5030060;28;20463;-58
2022/03/02 04:43:01;;;;;;;23.17;12.75;;;102.70;2227.20;;;;;;5029998;28;20041;-58
2022/03/02 04:45:27;;;;;;;19.65;12.70;;;102.70;2227.20;;;;;;5030029;28;20109;-58
2022/03/02 04:47:54;;;;;;;19.92;12.75;;;102.70;2227.20;;;;;;5029947;28;20089;-59
2022/03/02 04:50:22;;;;;;;24.52;12.18;;;102.60;2227.20;;;;;;5030166;28;20068;-57
2022/03/02 04:52:49;;;;;;;26.70;14.75;;;102.60;2227.20;;;;;;5029849;28;20036;-58
2022/03/02 04:55:16;;;;;;;22.55;13.65;;;102.60;2227.20;;;;;;5030013;28;20391;-58
2022/03/02 04:57:52;;;;;;;20.23;12.25;;;102.50;2227.20;;;;;;5030245;28;20457;-59
2022/03/02 05:00:26;;;;;;;19.52;12.82;;;102.60;2227.20;;;;;;5033374;28;20030;-58
2022/03/02 05:02:53;;;;;;;20.58;13.15;;;102.70;2227.20;;;;;;5033869;28;20036;-57
2022/03/02 05:05:21;;;;;;;18.35;11.75;;;102.80;2227.20;;;;;;5033977;28;20036;-57
2022/03/02 05:07:48;;;;;;;22.27;12.93;;;102.70;2227.20;;;;;;5034025;28;20088;-60
2022/03/02 05:10:16;;;;;;;20.55;12.82;;;102.70;2227.20;;;;;;5033628;28;20035;-57
2022/03/02 05:12:41;;;;;;;26.08;13.35;;;102.60;2227.20;;;;;;5034007;28;20033;-57
2022/03/02 05:15:09;;;;;;;20.77;12.95;;;102.70;2227.20;;;;;;5033508;28;20429;-58
2022/03/02 05:17:36;;;;;;;24.40;12.73;;;102.60;2227.20;;;;;;5033677;28;20108;-58
2022/03/02 05:20:02;;;;;;;22.30;12.40;;;102.70;2227.20;;;;;;5033782;28;20028;-60
2022/03/02 05:22:28;;;;;;;18.23;12.48;;;102.80;2227.20;;;;;;5033631;28;20065;-58
2022/03/02 05:24:54;;;;;;;24.08;12.75;;;102.60;2227.20;;;;;;5033500;28;20052;-58
2022/03/02 05:27:19;;;;;;;20.77;14.27;;;102.80;2227.20;;;;;;5033703;28;20034;-58
2022/03/02 05:29:45;;;;;;;24.70;13.73;;;102.60;2227.20;;;;;;5033281;28;20108;-57
2022/03/02 05:32:11;;;;;;;21.98;13.55;;;102.70;2227.20;;;;;;5033369;28;20036;-57
2022/03/02 05:34:37;;;;;;;25.17;13.82;;;102.70;2227.20;;;;;;5033156;28;20021;-57
2022/03/02 05:37:03;;;;;;;21.48;14.02;;;102.70;2227.20;;;;;;5033149;28;20100;-58
2022/03/02 05:39:29;;;;;;;19.08;12.32;;;102.70;2227.20;;;;;;5033221;28;20384;-61
2022/03/02 05:41:55;;;;;;;27.25;14.27;;;102.70;2227.20;;;;;;5033207;28;20030;-61
2022/03/02 05:44:21;;;;;;;23.77;13.77;;;102.80;2227.20;;;;;;5033409;28;20045;-62
2022/03/02 05:46:47;;;;;;;24.05;13.98;;;102.90;2227.20;;;;;;5032957;28;20372;-61
2022/03/02 05:49:14;;;;;;;26.67;15.35;;;102.90;2227.20;;;;;;5033099;28;20021;-61
2022/03/02 05:51:40;;;;;;;25.90;14.30;;;102.90;2227.20;;;;;;5033044;28;20028;-58
2022/03/02 05:54:10;;;;;;;28.90;15.63;;;102.80;2227.20;;;;;;5032944;28;20029;-57
2022/03/02 05:56:40;;;;;;;22.90;14.90;;;102.80;2227.20;;;;;;5032848;28;20083;-57
2022/03/02 05:59:06;;;;;;;26.98;14.45;;;102.80;2227.20;;;;;;5032680;28;20029;-57
2022/03/02 06:01:33;;;;;;;26.38;15.63;;;102.80;2227.20;;;;;;5033315;28;20052;-57
2022/03/02 06:04:00;;;;;;;22.98;14.95;;;102.90;2227.20;;;;;;5035452;28;20442;-60
2022/03/02 06:06:26;;;;;;;29.85;16.63;;;102.80;2227.20;;;;;;5049327;28;20152;-58
2022/03/02 06:08:52;;;;;;;31.33;17.75;;;102.80;2227.20;;;;;;5052845;28;20119;-60
2022/03/02 06:11:18;;;;;;;31.15;16.23;;;102.80;2227.20;;;;;;5052012;28;20039;-57
2022/03/02 06:13:44;;;;;;;30.70;17.08;;;102.90;2227.20;;;;;;5052432;28;20068;-58
2022/03/02 06:16:10;;;;;;;25.58;17.70;;;102.90;2227.20;;;;;;5052538;28;20032;-60
2022/03/02 06:18:36;;;;;;;29.55;19.13;;;102.90;2227.20;;;;;;5052486;28;20037;-58
2022/03/02 06:21:02;;;;;;;30.30;16.33;;;103.00;2227.20;;;;;;5052383;28;20057;-58
2022/03/02 06:23:32;;;;;;;30.48;19.15;;;103.00;2227.20;;;;;;5052414;28;20429;-57
2022/03/02 06:25:58;;;;;;;150.05;80.43;;;103.00;2227.20;;;;;;5052522;28;20029;-58
2022/03/02 06:28:25;;;;;;;105.13;59.92;;;103.10;2227.20;;;;;;5052069;28;20311;-55
2022/03/02 06:30:51;;;;;;;103.07;62.58;;;103.20;2227.20;;;;;;5052792;28;20113;-57
2022/03/02 06:33:18;;;;;;;214.13;118.20;;;103.20;2227.20;;;;;;5052285;28;20075;-59
2022/03/02 06:35:48;;;;;;;214.05;125.13;;;128.00;2252.80;;;;;;5051843;28;20119;-57
2022/03/02 06:38:15;;;;;;;47.33;29.25;;;128.00;2252.80;;;;;;5052019;28;20041;-58
2022/03/02 06:41:11;;;;;;;82.70;41.78;;;103.30;2227.20;;;;;;5052230;28;20048;-57
2022/03/02 06:43:49;;;;;;;116.95;57.20;;;103.30;2227.20;;;;;;5052060;28;20033;-59
2022/03/02 06:46:37;;;;;;;27.98;15.95;;;103.30;2227.20;;;;;;5051879;28;20112;-58
2022/03/02 06:49:20;;;;;;;357.90;196.00;;;103.30;2227.20;;;;;;4970658;28;20042;-58
2022/03/02 06:51:47;;;;;;;103.32;57.83;;;103.30;2227.20;;;;;;4970790;28;20050;-58
2022/03/02 06:54:18;;;;;;;25.08;17.63;;;128.10;2252.80;;;;;;4970750;28;20505;-58
2022/03/02 06:56:50;;;;;;;32.92;18.42;;;128.10;2252.80;;;;;;4971349;28;20117;-64
2022/03/02 06:59:40;;;;;;;30.15;17.85;;;128.20;2252.80;;;;;;4970711;28;20504;-62
2022/03/02 07:02:08;;;;;;;26.67;16.23;;;128.20;2252.80;;;;;;4970119;28;20039;-62
2022/03/02 07:04:41;;;;;;;27.55;21.90;;;128.20;2252.80;;;;;;4970785;28;20121;-61
2022/03/02 07:07:08;;;;;;;27.50;17.42;;;128.30;2252.80;;;;;;4970712;28;20054;-60
2022/03/02 07:09:34;;;;;;;27.60;17.38;;;128.40;2252.80;;;;;;4970711;28;20019;-59
2022/03/02 07:12:03;;;;;;;26.92;17.98;;;128.30;2252.80;;;;;;4970793;28;20035;-60
2022/03/02 07:14:30;;;;;;;34.22;21.90;;;128.40;2252.80;;;;;;4970736;28;20019;-59
2022/03/02 07:16:58;;;;;;;32.80;20.85;;;128.40;2252.80;;;;;;4970384;28;20489;-57
2022/03/02 07:19:24;;;;;;;32.67;19.23;;;128.30;2252.80;;;;;;4970355;28;20043;-59
2022/03/02 07:21:51;;;;;;;29.92;22.85;;;128.50;2252.80;;;;;;4970164;28;20129;-60
2022/03/02 07:24:19;;;;;;;25.23;16.73;;;128.70;2252.80;;;;;;4969956;28;20035;-61
2022/03/02 07:26:50;;;;;;;30.27;16.52;;;128.60;2252.80;;;;;;5031238;28;20045;-60
2022/03/02 07:29:18;;;;;;;30.48;21.13;;;128.60;2252.80;;;;;;5051049;28;20037;-60
2022/03/02 07:31:45;;;;;;;28.58;17.45;;;128.70;2252.80;;;;;;5051265;28;20040;-60
2022/03/02 07:34:13;;;;;;;28.05;16.75;;;128.70;2252.80;;;;;;5051025;28;20083;-59
2022/03/02 07:36:41;;;;;;;24.58;15.98;;;128.80;2252.80;;;;;;5050823;28;20131;-59
2022/03/02 07:39:08;;;;;;;27.70;16.02;;;128.90;2252.80;;;;;;5050889;28;20511;-59
2022/03/02 07:41:35;;;;;;;34.58;18.40;;;128.90;2252.80;;;;;;5050881;28;20388;-61
2022/03/02 07:44:02;;;;;;;38.92;22.45;;;153.60;2252.80;;;;;;5050926;28;20035;-61
2022/03/02 07:46:29;;;;;;;27.13;19.35;;;153.60;2252.80;;;;;;5051030;28;20021;-61
2022/03/02 07:48:56;;;;;;;28.05;17.90;;;128.90;2252.80;;;;;;5050607;28;20047;-61
2022/03/02 07:51:23;;;;;;;31.27;20.77;;;128.90;2252.80;;;;;;5050961;28;20021;-59
2022/03/02 07:53:50;;;;;;;32.90;21.50;;;128.90;2252.80;;;;;;5050812;28;20032;-59
2022/03/02 07:56:18;;;;;;;73.72;41.85;;;128.80;2252.80;;;;;;5050495;28;20025;-61
2022/03/02 07:58:44;;;;;;;30.80;20.88;;;128.70;2252.80;;;;;;5050456;28;20490;-58
2022/03/02 08:01:15;;;;;;;31.70;16.98;;;128.80;2252.80;;;;;;5050666;28;20029;-58
2022/03/02 08:03:43;;;;;;;27.30;18.50;;;128.70;2252.80;;;;;;5050509;28;20037;-59
2022/03/02 08:06:10;;;;;;;33.45;17.45;;;128.70;2252.80;;;;;;5050503;28;20098;-58
2022/03/02 08:08:36;;;;;;;29.00;19.02;;;128.90;2252.80;;;;;;5050434;28;20387;-59
2022/03/02 08:11:04;;;;;;;28.02;15.85;;;153.60;2252.80;;;;;;5050510;28;20149;-60
2022/03/02 08:13:31;;;;;;;27.30;18.75;;;153.70;2252.80;;;;;;5050325;28;20031;-59
2022/03/02 08:15:58;;;;;;;31.63;20.48;;;153.80;2252.80;;;;;;5049076;28;20037;-59
2022/03/02 08:18:24;;;;;;;25.50;17.02;;;153.80;2252.80;;;;;;5050135;28;20048;-59
2022/03/02 08:20:52;;;;;;;30.33;18.83;;;153.60;2252.80;;;;;;5050399;28;20021;-59
2022/03/02 08:23:19;;;;;;;36.00;22.70;;;153.80;2252.80;;;;;;5050316;28;20037;-61
2022/03/02 08:25:52;;;;;;;40.38;20.55;;;153.90;2252.80;;;;;;5050113;28;20040;-59
2022/03/02 08:28:20;;;;;;;58.53;35.67;;;153.90;2252.80;;;;;;5050125;28;20024;-59
2022/03/02 08:30:49;;;;;;;159.52;100.45;;;153.80;2252.80;;;;;;5050000;28;20017;-60
2022/03/02 08:33:26;;;;;;;32.88;22.02;;;153.60;2252.80;;;;;;5049555;28;20056;-59
2022/03/02 08:35:54;;;;;;;47.67;42.65;;;153.70;2252.80;;;;;;5049923;28;20072;-59
2022/03/02 08:38:21;;;;;;;31.42;18.33;;;153.70;2252.80;;;;;;5050198;28;20060;-59
2022/03/02 08:40:47;;;;;;;28.55;18.95;;;153.60;2252.80;;;;;;5049856;28;20478;-59
2022/03/02 08:43:17;;;;;;;32.30;16.33;;;153.70;2252.80;;;;;;5049818;28;20086;-60
2022/03/02 08:45:51;;;;;;;34.97;19.15;;;153.90;2252.80;;;;;;5050105;28;20017;-59
2022/03/02 08:48:19;;;;;;;33.10;21.95;;;153.80;2227.20;;;;;;5049696;28;20029;-59
2022/03/02 08:50:45;;;;;;;24.55;16.85;;;154.00;2201.60;;;;;;5049754;28;20017;-59
2022/03/02 08:53:16;;;;;;;27.38;17.35;;;153.90;2227.20;;;;;;5049998;28;20021;-59
2022/03/02 08:55:43;;;;;;;25.27;16.50;;;153.80;2201.60;;;;;;5049956;28;20059;-59
2022/03/02 08:58:10;;;;;;;25.98;15.80;;;153.70;2201.60;;;;;;5049923;28;20490;-59
2022/03/02 09:00:37;;;;;;;24.67;15.77;;;153.80;2176.00;;;;;;5049656;28;20029;-59
2022/03/02 09:03:04;;;;;;;23.50;15.05;;;153.90;2176.00;;;;;;5049301;28;20045;-59
2022/03/02 09:05:30;;;;;;;21.80;15.88;;;153.80;2150.40;;;;;;5049796;28;20071;-59
2022/03/02 09:07:57;;;;;;;21.20;15.82;;;153.90;2176.00;;;;;;5049791;28;20025;-60
2022/03/02 09:10:23;;;;;;;33.47;22.60;;;154.00;2150.40;;;;;;5047828;28;20029;-60
2022/03/02 09:12:52;;;;;;;29.13;17.73;;;154.10;2150.40;;;;;;5048332;28;20038;-59
2022/03/02 09:15:18;;;;;;;32.67;19.20;;;154.30;2150.40;;;;;;5048142;28;20029;-60
2022/03/02 09:17:44;;;;;;;27.70;15.93;;;154.20;2124.80;;;;;;5047971;28;20530;-59
2022/03/02 09:20:10;;;;;;;21.95;14.90;;;154.30;2073.60;;;;;;5048124;28;20033;-60
2022/03/02 09:22:39;;;;;;;25.52;16.15;;;154.30;2022.40;;;;;;5046786;28;20139;-59
2022/03/02 09:25:07;;;;;;;22.13;14.15;;;154.30;2022.40;;;;;;5049973;28;20121;-59
2022/03/02 09:27:34;;;;;;;40.80;22.27;;;154.20;2073.60;;;;;;5049895;28;20520;-59
2022/03/02 09:30:04;;;;;;;31.48;18.33;;;154.50;2048.00;;;;;;5049422;28;20033;-59
2022/03/02 09:32:32;;;;;;;38.88;24.88;;;154.30;2022.40;;;;;;5047246;28;20120;-59
2022/03/02 09:34:59;;;;;;;24.10;15.48;;;154.50;2022.40;;;;;;5049628;28;20068;-61
2022/03/02 09:37:27;;;;;;;23.63;15.43;;;154.50;2022.40;;;;;;5048982;28;20133;-59
2022/03/02 09:39:54;;;;;;;44.65;29.40;;;179.20;1996.80;;;;;;5049368;28;20514;-62
2022/03/02 09:42:44;;;;;;;25.67;17.70;;;179.30;1996.80;;;;;;5049599;28;20025;-59
2022/03/02 09:45:11;;;;;;;46.05;31.85;;;179.60;1996.80;;;;;;5049568;28;20025;-59
2022/03/02 09:47:44;;;;;;;35.95;22.55;;;179.50;1971.20;;;;;;5052898;28;20033;-59
2022/03/02 09:50:12;;;;;;;22.80;14.65;;;179.40;1945.60;;;;;;5053198;28;20562;-60
2022/03/02 09:52:44;;;;;;;34.67;21.48;;;179.50;1920.00;;;;;;5051871;28;20036;-62
2022/03/02 09:55:12;;;;;;;35.45;21.65;;;179.70;1920.00;;;;;;5053063;28;20065;-59
2022/03/02 09:57:47;;;;;;;27.92;18.92;;;179.70;1920.00;;;;;;5052995;28;20079;-59
2022/03/02 10:00:18;;;;;;;24.50;19.88;;;179.80;1894.40;;;;;;5052928;28;20036;-59
2022/03/02 10:02:50;;;;;;;29.40;18.02;;;180.00;1894.40;;;;;;5052493;28;20037;-59
2022/03/02 10:05:28;;;;;;;22.65;17.40;;;204.80;1868.80;;;;;;5052697;28;20036;-59
2022/03/02 10:08:05;;;;;;;19.42;13.68;;;205.00;1894.40;;;;;;5052927;28;20509;-60
2022/03/02 10:10:42;;;;;;;22.88;16.92;;;205.00;1868.80;;;;;;5052808;28;20033;-60
2022/03/02 10:13:10;;;;;;;82.95;55.63;;;205.00;1843.20;;;;;;5045429;28;20022;-58
2022/03/02 10:15:39;;;;;;;43.13;26.73;;;205.20;1843.20;;;;;;5023510;28;20041;-59
2022/03/02 10:18:07;;;;;;;55.60;29.35;;;205.10;1843.20;;;;;;5028285;28;20487;-59
2022/03/02 10:20:38;;;;;;;23.10;15.60;;;205.10;1817.60;;;;;;5027058;28;20018;-60
2022/03/02 10:23:35;;;;;;;47.58;31.20;;;205.20;1817.60;;;;;;5038786;28;20045;-60
2022/03/02 10:26:03;;;;;;;35.03;25.23;;;205.10;1817.60;;;;;;5029010;28;20022;-59
2022/03/02 10:28:50;;;;;;;31.05;20.17;;;205.20;1792.00;;;;;;5021397;28;20026;-59
2022/03/02 10:31:28;;;;;;;33.38;23.77;;;205.20;1766.40;;;;;;5029472;28;20121;-58
2022/03/02 10:34:16;;;;;;;27.55;17.05;;;205.00;1766.40;;;;;;5028034;28;20032;-60
2022/03/02 10:36:45;;;;;;;21.40;13.00;;;205.00;1792.00;;;;;;5028637;28;20116;-60
2022/03/02 10:39:29;;;;;;;23.50;16.65;;;205.00;1792.00;;;;;;5035812;28;20037;-59
2022/03/02 10:41:58;;;;;;;23.13;14.88;;;204.90;1766.40;;;;;;5051881;28;20025;-60
2022/03/02 10:44:36;;;;;;;22.50;14.60;;;205.20;1766.40;;;;;;5051995;28;20061;-59
2022/03/02 10:47:04;;;;;;;21.85;13.20;;;205.20;1766.40;;;;;;5052315;28;20357;-58
2022/03/02 10:49:32;;;;;;;18.65;14.18;;;205.10;1766.40;;;;;;5050270;28;20033;-61
2022/03/02 10:52:01;;;;;;;21.10;16.08;;;205.10;1766.40;;;;;;5052074;28;20028;-59
2022/03/02 10:54:30;;;;;;;22.55;14.35;;;205.30;1740.80;;;;;;5051761;28;20017;-59
2022/03/02 10:56:59;;;;;;;25.88;18.73;;;205.40;1792.00;;;;;;5051473;28;20025;-60
2022/03/02 10:59:25;;;;;;;30.33;20.20;;;205.60;1740.80;;;;;;5051640;28;20029;-60
2022/03/02 11:28:20;;;;;;;15.73;11.15;;;;;;;;;;5084691;27;1350085;-56
2022/03/02 11:30:51;;;;;;;17.45;12.98;;;;;;;;;;5107813;28;20431;-61
2022/03/02 11:33:17;;;;;;;19.02;12.52;;;;;;;;;;5107481;28;20020;-60
2022/03/02 11:35:46;;;;;;;16.75;11.02;;;;;;;;;;5107684;28;20028;-56
2022/03/02 11:38:17;;;;;;;12.70;8.27;;;230.50;1689.60;;;;;;5107907;28;20067;-57
2022/03/02 11:40:47;;;;;;;22.75;12.32;;;205.70;1664.00;;;;;;5107721;28;20032;-62
2022/03/02 11:43:24;;;;;;;15.70;11.25;;;230.50;1664.00;;;;;;5109041;28;20462;-59
2022/03/02 11:45:58;;;;;;;16.02;12.20;;;230.60;1638.40;;;;;;5108065;28;20107;-57
2022/03/02 11:48:28;;;;;;;;;;;230.50;1664.00;;;;;;5107504;28;20034;-57
2022/03/02 11:51:06;;;;;;;13.73;9.50;;;230.60;1664.00;;;;;;5106608;28;19904;-57
2022/03/02 11:53:46;;;;;;;18.30;12.32;;;230.90;1638.40;;;;;;5106772;28;20504;-60
2022/03/02 11:56:18;;;;;;;16.55;10.63;;;231.00;1587.20;;;;;;5106720;28;20110;-58
2022/03/02 11:59:03;;;;;;;16.60;11.25;;;230.90;1587.20;;;;;;5105661;28;20084;-58
2022/03/02 12:01:45;;;;;;;22.17;12.48;;;231.00;1612.80;;;;;;5106246;28;20038;-57
2022/03/02 12:04:14;;;;;;;21.42;15.52;;;231.00;1612.80;;;;;;5106179;28;20028;-58
2022/03/02 12:06:50;;;;;;;62.97;43.20;;;231.00;1587.20;;;;;;5106657;28;20069;-57
2022/03/02 12:09:29;;;;;;;27.88;17.27;;;230.80;1638.40;;;;;;5107284;28;20074;-57
2022/03/02 12:12:16;;;;;;;17.92;13.10;;;230.80;1638.40;;;;;;5107144;28;20026;-56
2022/03/02 12:14:44;;;;;;;16.38;11.82;;;230.50;1612.80;;;;;;5107004;28;20027;-57
2022/03/02 12:17:22;;;;;;;59.08;40.35;;;230.50;1612.80;;;;;;5106901;28;20036;-57
2022/03/02 12:19:51;;;;;;;25.67;16.80;;;230.60;1638.40;;;;;;5106670;28;20038;-56
2022/03/02 12:22:17;;;;;;;20.88;14.98;;;230.80;1638.40;;;;;;5106915;28;20193;-57
2022/03/02 12:24:45;;;;;;;19.98;13.02;;;230.80;1638.40;;;;;;5107007;28;20033;-56
2022/03/02 12:27:12;;;;;;;16.67;11.57;;;230.90;1638.40;;;;;;5104986;28;20121;-57
2022/03/02 12:29:39;;;;;;;19.02;12.32;;;230.80;1612.80;;;;;;5092926;28;20153;-57
2022/03/02 12:32:16;;;;;;;22.52;15.00;;;230.90;1612.80;;;;;;5092943;28;20024;-57